createdAt,value
2023-01-01T00:01:49.690Z,28.97
2023-01-01T00:04:21.851Z,29.30
2023-01-01T00:06:52.045Z,29.25
2023-01-01T00:09:39.698Z,29.23
2023-01-01T00:12:08.656Z,29.22
2023-01-01T00:14:43.870Z,28.88
2023-01-01T00:17:18.118Z,28.73
2023-01-01T00:19:47.827Z,29.02
2023-01-01T00:22:52.921Z,28.79
2023-01-01T00:25:09.548Z,28.82
2023-01-01T00:27:39.918Z,28.65
2023-01-01T00:30:13.739Z,28.14
2023-01-01T00:32:55.944Z,28.33
2023-01-01T00:35:25.846Z,28.17
2023-01-01T00:37:55.206Z,28.56
2023-01-01T00:40:24.259Z,28.36
2023-01-01T00:42:53.253Z,28.18
2023-01-01T00:45:23.217Z,28.51
2023-01-01T00:47:54.455Z,27.97
2023-01-01T00:50:24.137Z,28.01
2023-01-01T00:52:52.647Z,28.06
2023-01-01T00:55:21.450Z,28.12
2023-01-01T00:57:50.118Z,28.16
2023-01-01T01:00:19.578Z,27.88
2023-01-01T01:02:48.263Z,27.74
2023-01-01T01:05:18.907Z,27.44
2023-01-01T01:07:47.190Z,27.50
2023-01-01T01:10:15.980Z,27.47
2023-01-01T01:12:44.291Z,27.67
2023-01-01T01:15:13.219Z,27.41
2023-01-01T01:17:41.728Z,27.45
2023-01-01T01:20:11.576Z,27.69
2023-01-01T01:22:41.734Z,27.13
2023-01-01T01:25:11.452Z,27.39
2023-01-01T01:27:39.814Z,27.72
2023-01-01T01:30:09.949Z,27.61
2023-01-01T01:32:38.251Z,27.63
2023-01-01T01:35:07.794Z,27.65
2023-01-01T01:37:36.491Z,27.54
2023-01-01T01:40:08.180Z,27.11
2023-01-01T01:42:37.079Z,27.37
2023-01-01T01:45:08.938Z,26.97
2023-01-01T01:47:39.045Z,27.31
2023-01-01T01:50:11.763Z,27.24
2023-01-01T01:52:46.251Z,27.10
2023-01-01T01:55:16.708Z,27.28
2023-01-01T01:57:45.520Z,27.73
2023-01-01T02:00:15.688Z,27.66
2023-01-01T02:02:50.140Z,27.13
2023-01-01T02:05:20.585Z,27.28
2023-01-01T02:07:49.162Z,27.62
2023-01-01T02:10:21.358Z,27.36
2023-01-01T02:12:50.091Z,27.46
2023-01-01T02:15:19.111Z,27.57
2023-01-01T02:17:55.927Z,26.92
2023-01-01T02:20:32.510Z,27.09
2023-01-01T02:23:44.832Z,26.63
2023-01-01T02:26:42.708Z,26.92
2023-01-01T02:29:21.668Z,27.33
2023-01-01T02:31:53.945Z,27.76
2023-01-01T02:34:25.157Z,27.67
2023-01-01T02:36:56.308Z,27.64
2023-01-01T02:39:27.160Z,27.79
2023-01-01T02:41:57.844Z,27.47
2023-01-01T02:44:28.477Z,27.29
2023-01-01T02:46:57.137Z,27.70
2023-01-01T02:49:26.410Z,27.43
2023-01-01T02:52:03.284Z,27.54
2023-01-01T02:54:35.371Z,27.77
2023-01-01T02:57:09.258Z,27.61
2023-01-01T03:00:06.673Z,27.30
2023-01-01T03:02:46.794Z,27.72
2023-01-01T03:05:21.414Z,28.18
2023-01-01T03:08:00.850Z,27.46
2023-01-01T03:10:36.189Z,27.56
2023-01-01T03:13:10.828Z,27.60
2023-01-01T03:15:45.145Z,27.52
2023-01-01T03:18:18.354Z,27.56
2023-01-01T03:20:49.773Z,27.91
2023-01-01T03:23:22.995Z,27.91
2023-01-01T03:25:53.372Z,28.13
2023-01-01T03:28:24.922Z,27.86
2023-01-01T03:30:55.122Z,27.88
2023-01-01T03:33:28.409Z,27.87
2023-01-01T03:36:00.889Z,27.89
2023-01-01T03:38:32.584Z,27.91
2023-01-01T03:41:04.349Z,28.21
2023-01-01T03:43:39.508Z,28.09
2023-01-01T03:46:10.815Z,27.96
2023-01-01T03:49:00.243Z,28.20
2023-01-01T03:51:41.281Z,27.75
2023-01-01T03:54:15.278Z,27.85
2023-01-01T03:56:47.031Z,27.81
2023-01-01T03:59:19.210Z,27.94
2023-01-01T04:01:54.313Z,27.66
2023-01-01T04:04:23.268Z,27.95
2023-01-01T04:06:52.020Z,27.57
2023-01-01T04:09:24.690Z,27.13
2023-01-01T04:12:05.676Z,27.17
2023-01-01T04:14:38.499Z,27.17
2023-01-01T04:17:09.906Z,26.67
2023-01-01T04:19:38.948Z,26.70
2023-01-01T04:22:10.504Z,26.89
2023-01-01T04:24:39.701Z,26.71
2023-01-01T04:27:08.140Z,26.79
2023-01-01T04:29:38.610Z,26.85
2023-01-01T04:32:08.574Z,26.94
2023-01-01T04:34:37.099Z,27.38
2023-01-01T04:37:11.291Z,27.11
2023-01-01T04:39:41.979Z,26.87
2023-01-01T04:42:10.339Z,27.13
2023-01-01T04:44:39.066Z,26.84
2023-01-01T04:47:08.880Z,26.70
2023-01-01T04:49:37.905Z,26.57
2023-01-01T04:52:06.445Z,26.37
2023-01-01T04:54:35.091Z,26.38
2023-01-01T04:57:03.540Z,26.28
2023-01-01T04:59:32.657Z,26.16
2023-01-01T05:02:01.318Z,26.12
2023-01-01T05:04:31.449Z,25.78
2023-01-01T05:07:00.046Z,25.96
2023-01-01T05:09:28.916Z,25.69
2023-01-01T05:11:57.123Z,26.00
2023-01-01T05:14:25.942Z,25.97
2023-01-01T05:16:54.216Z,26.02
2023-01-01T05:19:23.158Z,26.06
2023-01-01T05:21:54.376Z,25.94
2023-01-01T05:24:23.314Z,26.35
2023-01-01T05:26:51.584Z,26.31
2023-01-01T05:29:20.291Z,26.44
2023-01-01T05:31:48.745Z,26.58
2023-01-01T05:34:17.315Z,26.56
2023-01-01T05:36:46.659Z,26.70
2023-01-01T05:39:16.564Z,26.33
2023-01-01T05:41:44.965Z,26.66
2023-01-01T05:44:16.731Z,26.81
2023-01-01T05:46:45.055Z,25.39
2023-01-01T05:49:14.552Z,26.39
2023-01-01T05:51:43.156Z,26.35
2023-01-01T05:56:40.777Z,26.48
2023-01-01T05:59:11.332Z,26.28
2023-01-01T06:01:45.369Z,26.46
2023-01-01T06:04:14.765Z,26.63
2023-01-01T06:06:43.314Z,26.48
2023-01-01T06:09:12.779Z,26.22
2023-01-01T06:11:43.007Z,26.08
2023-01-01T06:14:11.695Z,26.27
2023-01-01T06:16:39.916Z,26.20
2023-01-01T06:19:09.006Z,25.91
2023-01-01T06:21:37.393Z,26.08
2023-01-01T06:24:07.205Z,26.40
2023-01-01T06:26:37.478Z,26.17
2023-01-01T06:29:07.441Z,25.63
2023-01-01T06:31:40.623Z,26.13
2023-01-01T06:34:10.123Z,26.11
2023-01-01T06:36:38.528Z,26.23
2023-01-01T06:39:08.455Z,26.19
2023-01-01T06:41:37.142Z,26.25
2023-01-01T06:44:07.507Z,26.33
2023-01-01T06:46:37.413Z,26.20
2023-01-01T06:49:07.677Z,26.14
2023-01-01T06:51:38.817Z,26.03
2023-01-01T06:54:08.001Z,26.26
2023-01-01T06:56:36.537Z,26.43
2023-01-01T06:59:05.591Z,26.47
2023-01-01T07:01:37.614Z,26.30
2023-01-01T07:04:08.964Z,26.44
2023-01-01T07:06:37.349Z,26.55
2023-01-01T07:09:07.775Z,26.41
2023-01-01T07:11:36.647Z,26.42
2023-01-01T07:14:06.107Z,26.32
2023-01-01T07:16:36.237Z,26.20
2023-01-01T07:19:05.353Z,26.49
2023-01-01T07:21:35.822Z,26.31
2023-01-01T07:24:06.525Z,26.47
2023-01-01T07:26:35.576Z,26.28
2023-01-01T07:29:07.739Z,26.76
2023-01-01T07:31:39.953Z,26.52
2023-01-01T07:34:11.258Z,26.65
2023-01-01T07:36:39.681Z,26.76
2023-01-01T07:39:08.472Z,26.56
2023-01-01T07:41:37.580Z,26.45
2023-01-01T07:44:06.675Z,26.33
2023-01-01T07:46:37.951Z,26.18
2023-01-01T07:49:07.316Z,26.35
2023-01-01T07:51:36.069Z,26.34
2023-01-01T07:54:07.386Z,26.22
2023-01-01T07:56:36.529Z,26.00
2023-01-01T07:59:05.757Z,25.95
2023-01-01T08:01:38.516Z,25.52
2023-01-01T08:04:07.211Z,25.68
2023-01-01T08:06:35.648Z,25.62
2023-01-01T08:09:04.310Z,25.35
2023-01-01T08:11:32.723Z,25.38
2023-01-01T08:14:01.551Z,25.34
2023-01-01T08:16:29.961Z,25.33
2023-01-01T08:19:00.003Z,25.11
2023-01-01T08:21:28.498Z,25.26
2023-01-01T08:23:57.208Z,24.87
2023-01-01T08:26:30.840Z,24.60
2023-01-01T08:28:59.998Z,24.38
2023-01-01T08:31:28.902Z,24.45
2023-01-01T08:33:59.292Z,24.44
2023-01-01T08:36:27.901Z,24.23
2023-01-01T08:38:57.111Z,24.10
2023-01-01T08:41:25.773Z,24.10
2023-01-01T08:43:54.856Z,23.75
2023-01-01T08:46:23.215Z,23.02
2023-01-01T08:48:52.309Z,22.38
2023-01-01T08:51:22.033Z,20.52
2023-01-01T08:54:00.213Z,19.53
2023-01-01T08:56:28.569Z,17.53
2023-01-01T08:59:03.594Z,16.25
2023-01-01T09:01:32.783Z,15.54
2023-01-01T09:04:03.944Z,14.96
2023-01-01T09:06:33.812Z,14.07
2023-01-01T09:09:02.696Z,13.76
2023-01-01T09:11:31.124Z,13.42
2023-01-01T09:14:00.758Z,13.05
2023-01-01T09:16:29.417Z,12.70
2023-01-01T09:18:58.264Z,12.51
2023-01-01T09:21:26.837Z,12.63
2023-01-01T09:23:57.277Z,12.45
2023-01-01T09:26:25.991Z,12.16
2023-01-01T09:28:55.003Z,12.24
2023-01-01T09:31:23.791Z,11.69
2023-01-01T09:33:52.785Z,11.29
2023-01-01T09:36:29.556Z,11.04
2023-01-01T09:39:00.708Z,11.26
2023-01-01T09:41:37.648Z,10.94
2023-01-01T09:44:18.637Z,10.53
2023-01-01T09:52:48.340Z,9.47
2023-01-01T09:55:34.619Z,8.53
2023-01-01T10:01:11.492Z,8.02
2023-01-01T10:03:43.063Z,7.92
2023-01-01T10:06:20.926Z,7.32
2023-01-01T10:09:02.781Z,6.99
2023-01-01T10:11:40.436Z,6.55
2023-01-01T10:14:17.967Z,6.38
2023-01-01T10:16:49.341Z,6.41
2023-01-01T10:19:26.628Z,6.45
2023-01-01T10:21:59.848Z,6.25
2023-01-01T10:24:37.742Z,6.77
2023-01-01T10:27:08.525Z,6.83
2023-01-01T10:29:42.095Z,6.71
2023-01-01T10:32:20.719Z,6.37
2023-01-01T10:34:49.944Z,6.93
2023-01-01T10:37:18.939Z,7.00
2023-01-01T10:39:48.302Z,7.10
2023-01-01T10:42:18.505Z,7.29
2023-01-01T10:44:48.436Z,7.09
2023-01-01T10:47:25.768Z,6.71
2023-01-01T10:49:59.332Z,6.88
2023-01-01T10:52:31.878Z,6.74
2023-01-01T10:55:01.093Z,7.36
2023-01-01T10:57:37.898Z,7.73
2023-01-01T11:00:28.570Z,9.33
2023-01-01T11:03:20.229Z,10.74
2023-01-01T11:06:06.327Z,11.92
2023-01-01T11:08:36.702Z,12.93
2023-01-01T11:11:05.441Z,13.31
2023-01-01T11:13:35.989Z,12.79
2023-01-01T11:16:11.928Z,11.75
2023-01-01T11:18:40.811Z,11.51
2023-01-01T11:21:09.632Z,10.45
2023-01-01T11:23:39.905Z,10.23
2023-01-01T11:26:22.250Z,9.54
2023-01-01T11:29:02.839Z,9.63
2023-01-01T11:31:35.652Z,9.40
2023-01-01T11:34:04.987Z,8.82
2023-01-01T11:36:35.073Z,8.79
2023-01-01T11:39:21.648Z,8.65
2023-01-01T11:41:51.680Z,9.24
2023-01-01T11:44:33.258Z,9.34
2023-01-01T11:47:01.925Z,9.84
2023-01-01T11:49:31.747Z,8.68
2023-01-01T11:52:00.778Z,9.18
2023-01-01T11:54:36.239Z,8.66
2023-01-01T11:57:12.284Z,8.82
2023-01-01T11:59:47.597Z,9.16
2023-01-01T12:02:19.090Z,9.55
2023-01-01T12:04:51.589Z,9.64
2023-01-01T12:07:23.536Z,9.35
2023-01-01T12:09:56.350Z,9.50
2023-01-01T12:12:29.504Z,10.66
2023-01-01T12:15:03.826Z,11.98
2023-01-01T12:17:35.385Z,13.02
2023-01-01T12:20:07.148Z,13.35
2023-01-01T12:22:35.489Z,14.32
2023-01-01T12:25:05.441Z,15.09
2023-01-01T12:27:48.875Z,15.57
2023-01-01T12:30:22.797Z,15.83
2023-01-01T12:33:08.365Z,16.10
2023-01-01T12:35:48.096Z,16.63
2023-01-01T12:38:26.667Z,17.03
2023-01-01T12:41:01.675Z,17.29
2023-01-01T12:43:39.126Z,17.33
2023-01-01T12:46:33.724Z,17.83
2023-01-01T12:49:14.879Z,18.07
2023-01-01T12:51:51.863Z,18.20
2023-01-01T12:54:47.855Z,18.03
2023-01-01T12:57:22.781Z,18.85
2023-01-01T12:59:53.042Z,18.74
2023-01-01T13:02:25.492Z,18.73
2023-01-01T13:04:56.520Z,19.23
2023-01-01T13:07:30.075Z,19.07
2023-01-01T13:10:00.259Z,19.04
2023-01-01T13:12:29.455Z,19.91
2023-01-01T13:14:58.545Z,19.86
2023-01-01T13:17:30.833Z,19.43
2023-01-01T13:20:00.720Z,19.90
2023-01-01T13:22:43.794Z,19.92
2023-01-01T13:25:24.068Z,20.10
2023-01-01T13:28:16.602Z,19.71
2023-01-01T13:30:57.163Z,19.95
2023-01-01T13:33:37.144Z,20.20
2023-01-01T13:36:35.714Z,19.97
2023-01-01T13:39:08.126Z,20.95
2023-01-01T13:41:53.641Z,20.71
2023-01-01T13:44:23.802Z,20.91
2023-01-01T13:47:14.282Z,20.56
2023-01-01T13:50:04.936Z,20.39
2023-01-01T13:52:45.496Z,20.64
2023-01-01T13:55:41.151Z,20.84
2023-01-01T13:58:26.020Z,20.92
2023-01-01T14:01:09.149Z,21.05
2023-01-01T14:03:42.023Z,21.04
2023-01-01T14:06:14.265Z,21.64
2023-01-01T14:08:46.467Z,21.35
2023-01-01T14:11:23.157Z,21.60
2023-01-01T14:13:51.938Z,21.89
2023-01-01T14:16:21.254Z,21.76
2023-01-01T14:19:00.864Z,21.39
2023-01-01T14:21:34.327Z,21.73
2023-01-01T14:24:05.456Z,22.23
2023-01-01T14:26:34.099Z,21.32
2023-01-01T14:29:04.636Z,22.27
2023-01-01T14:31:36.459Z,22.02
2023-01-01T14:34:15.655Z,21.75
2023-01-01T14:36:53.444Z,21.89
2023-01-01T14:39:28.144Z,22.44
2023-01-01T14:41:59.619Z,22.69
2023-01-01T14:44:36.362Z,22.52
2023-01-01T14:47:06.680Z,22.69
2023-01-01T14:49:37.397Z,22.81
2023-01-01T14:52:12.118Z,22.59
2023-01-01T14:54:44.392Z,22.90
2023-01-01T14:57:18.536Z,22.76
2023-01-01T14:59:48.201Z,22.83
2023-01-01T15:02:19.208Z,23.21
2023-01-01T15:04:48.203Z,23.25
2023-01-01T15:07:23.634Z,22.69
2023-01-01T15:09:52.770Z,23.66
2023-01-01T15:12:23.064Z,23.87
2023-01-01T15:14:57.155Z,24.06
2023-01-01T15:17:27.406Z,23.86
2023-01-01T15:20:09.529Z,23.80
2023-01-01T15:22:40.753Z,23.96
2023-01-01T15:25:14.978Z,23.77
2023-01-01T15:27:44.913Z,24.26
2023-01-01T15:30:30.520Z,24.05
2023-01-01T15:33:11.451Z,24.08
2023-01-01T15:38:35.010Z,24.54
2023-01-01T15:41:27.733Z,24.37
2023-01-01T15:44:09.118Z,23.96
2023-01-01T15:46:40.491Z,24.05
2023-01-01T15:49:25.152Z,23.98
2023-01-01T15:51:56.809Z,24.56
2023-01-01T15:54:31.810Z,24.44
2023-01-01T15:57:01.484Z,24.77
2023-01-01T15:59:46.549Z,24.44
2023-01-01T16:02:21.191Z,23.48
2023-01-01T16:04:53.558Z,24.44
2023-01-01T16:07:28.287Z,24.69
2023-01-01T16:10:13.052Z,24.51
2023-01-01T16:13:00.718Z,24.87
2023-01-01T16:15:32.540Z,24.95
2023-01-01T16:21:07.378Z,25.18
2023-01-01T16:23:47.502Z,25.19
2023-01-01T16:26:17.560Z,24.85
2023-01-01T16:28:47.871Z,25.30
2023-01-01T16:31:21.393Z,25.25
2023-01-01T16:33:55.887Z,25.09
2023-01-01T16:36:27.502Z,25.57
2023-01-01T16:39:00.348Z,25.50
2023-01-01T16:41:30.655Z,25.06
2023-01-01T16:43:59.827Z,25.28
2023-01-01T16:46:36.195Z,25.45
2023-01-01T16:49:07.606Z,25.37
2023-01-01T16:51:40.630Z,25.45
2023-01-01T16:54:12.684Z,25.58
2023-01-01T16:56:42.738Z,25.61
2023-01-01T16:59:11.684Z,26.12
2023-01-01T17:01:40.349Z,26.29
2023-01-01T17:04:09.260Z,26.73
2023-01-01T17:06:39.736Z,26.55
2023-01-01T17:09:10.145Z,26.66
2023-01-01T17:11:39.602Z,26.88
2023-01-01T17:14:11.334Z,26.80
2023-01-01T17:16:40.513Z,26.95
2023-01-01T17:19:14.954Z,26.84
2023-01-01T17:21:47.245Z,27.28
2023-01-01T17:24:17.097Z,27.39
2023-01-01T17:26:45.721Z,27.82
2023-01-01T17:29:16.202Z,27.73
2023-01-01T17:31:45.136Z,27.95
2023-01-01T17:34:14.914Z,28.08
2023-01-01T17:36:45.371Z,28.20
2023-01-01T17:39:15.226Z,28.27
2023-01-01T17:41:46.417Z,28.60
2023-01-01T17:44:16.888Z,28.52
2023-01-01T17:46:47.081Z,29.17
2023-01-01T17:49:16.228Z,29.15
2023-01-01T17:51:44.983Z,29.08
2023-01-01T17:54:14.459Z,29.39
2023-01-01T17:56:43.586Z,29.32
2023-01-01T17:59:12.854Z,29.43
2023-01-01T18:01:44.583Z,29.16
2023-01-01T18:04:16.441Z,29.07
2023-01-01T18:06:50.851Z,29.28
2023-01-01T18:09:23.865Z,29.15
2023-01-01T18:11:52.990Z,29.05
2023-01-01T18:14:24.686Z,28.91
2023-01-01T18:16:55.120Z,28.81
2023-01-01T18:19:24.660Z,28.76
2023-01-01T18:21:53.426Z,29.06
2023-01-01T18:24:22.473Z,29.43
2023-01-01T18:26:51.319Z,29.25
2023-01-01T18:29:20.714Z,29.38
2023-01-01T18:31:49.316Z,29.28
2023-01-01T18:34:19.893Z,29.24
2023-01-01T18:36:48.553Z,29.40
2023-01-01T18:39:22.121Z,29.09
2023-01-01T18:42:08.385Z,28.54
2023-01-01T18:44:44.802Z,29.46
2023-01-01T18:47:16.430Z,29.37
2023-01-01T18:49:50.356Z,29.28
2023-01-01T18:52:23.966Z,29.18
2023-01-01T18:55:01.377Z,29.45
2023-01-01T18:57:30.314Z,30.03
2023-01-01T19:00:00.241Z,30.18
2023-01-01T19:02:32.566Z,30.18
2023-01-01T19:05:16.728Z,29.71
2023-01-01T19:07:47.362Z,30.35
2023-01-01T19:10:16.872Z,30.67
2023-01-01T19:12:45.703Z,30.92
2023-01-01T19:15:18.243Z,30.75
2023-01-01T19:17:46.999Z,30.80
2023-01-01T19:20:20.871Z,30.17
2023-01-01T19:22:49.415Z,30.79
2023-01-01T19:25:39.720Z,30.19
2023-01-01T19:28:38.583Z,30.05
2023-01-01T19:31:08.615Z,30.91
2023-01-01T19:33:37.090Z,30.85
2023-01-01T19:36:08.214Z,30.99
2023-01-01T19:38:36.677Z,30.84
2023-01-01T19:41:05.812Z,31.20
2023-01-01T19:43:34.324Z,31.06
2023-01-01T19:46:03.526Z,31.25
2023-01-01T19:48:31.972Z,31.29
2023-01-01T19:51:00.845Z,31.58
2023-01-01T19:53:30.888Z,31.22
2023-01-01T19:55:59.911Z,31.59
2023-01-01T19:58:28.579Z,31.57
2023-01-01T20:00:57.436Z,31.48
2023-01-01T20:03:52.922Z,31.83
2023-01-01T20:06:15.503Z,31.67
2023-01-01T20:08:45.463Z,31.78
2023-01-01T20:11:15.647Z,31.72
2023-01-01T20:13:44.246Z,31.93
2023-01-01T20:16:13.225Z,31.84
2023-01-01T20:18:42.096Z,31.80
2023-01-01T20:21:28.356Z,31.76
2023-01-01T20:23:58.175Z,31.86
2023-01-01T20:26:27.236Z,31.67
2023-01-01T20:29:13.267Z,31.85
2023-01-01T20:31:43.060Z,32.19
2023-01-01T20:34:11.999Z,32.04
2023-01-01T20:36:58.433Z,32.03
2023-01-01T20:39:28.448Z,32.19
2023-01-01T20:41:58.372Z,32.07
2023-01-01T20:44:29.872Z,31.81
2023-01-01T20:46:58.841Z,32.02
2023-01-01T20:49:27.321Z,32.45
2023-01-01T20:51:56.144Z,32.40
2023-01-01T20:54:24.817Z,31.81
2023-01-01T20:56:55.062Z,32.02
2023-01-01T20:59:35.264Z,32.33
2023-01-01T21:02:05.424Z,32.30
2023-01-01T21:04:38.981Z,32.12
2023-01-01T21:07:09.535Z,32.12
2023-01-01T21:09:38.353Z,32.67
2023-01-01T21:12:09.492Z,32.43
2023-01-01T21:14:38.559Z,32.50
2023-01-01T21:17:19.604Z,31.79
2023-01-01T21:19:48.565Z,32.31
2023-01-01T21:22:17.480Z,32.83
2023-01-01T21:25:10.661Z,32.49
2023-01-01T21:27:46.758Z,31.80
2023-01-01T21:30:15.668Z,32.37
2023-01-01T21:32:46.260Z,32.60
2023-01-01T21:35:19.936Z,31.98
2023-01-01T21:37:50.189Z,32.63
2023-01-01T21:40:35.798Z,31.97
2023-01-01T21:43:26.018Z,31.90
2023-01-01T21:45:55.833Z,32.48
2023-01-01T21:48:30.366Z,32.01
2023-01-01T21:51:00.626Z,32.30
2023-01-01T21:53:31.340Z,32.49
2023-01-01T21:56:00.361Z,32.77
2023-01-01T21:58:51.742Z,32.09
2023-01-01T22:01:26.081Z,32.15
2023-01-01T22:04:00.451Z,32.13
2023-01-01T22:06:35.289Z,32.00
2023-01-01T22:09:14.370Z,31.96
2023-01-01T22:11:43.582Z,32.75
2023-01-01T22:14:16.880Z,32.14
2023-01-01T22:16:47.360Z,32.57
2023-01-01T22:19:18.147Z,32.17
2023-01-01T22:21:47.151Z,32.21
2023-01-01T22:24:34.317Z,31.78
2023-01-01T22:27:25.212Z,31.83
2023-01-01T22:29:55.858Z,32.29
2023-01-01T22:32:26.608Z,32.47
2023-01-01T22:34:56.875Z,32.37
2023-01-01T22:37:30.555Z,32.19
2023-01-01T22:40:00.349Z,32.36
2023-01-01T22:42:31.967Z,32.07
2023-01-01T22:45:02.366Z,32.13
2023-01-01T22:47:35.815Z,31.97
2023-01-01T22:50:08.208Z,31.98
2023-01-01T22:52:36.438Z,32.71
2023-01-01T22:55:08.333Z,32.53
2023-01-01T22:57:36.704Z,32.97
2023-01-01T23:00:08.587Z,32.57
2023-01-01T23:02:36.895Z,33.10
2023-01-01T23:05:07.221Z,32.95
2023-01-01T23:07:41.713Z,33.32
2023-01-01T23:10:12.332Z,32.97
2023-01-01T23:12:40.863Z,33.12
2023-01-01T23:15:29.318Z,33.03
2023-01-01T23:17:57.784Z,33.09
2023-01-01T23:20:26.786Z,33.29
2023-01-01T23:22:56.735Z,33.06
2023-01-01T23:25:26.015Z,33.42
2023-01-01T23:27:54.681Z,33.55
2023-01-01T23:30:24.881Z,33.84
2023-01-01T23:32:53.250Z,33.67
2023-01-01T23:35:22.060Z,33.68
2023-01-01T23:37:50.582Z,33.71
2023-01-01T23:40:19.424Z,33.45
2023-01-01T23:42:48.206Z,33.29
2023-01-01T23:45:17.898Z,33.45
2023-01-01T23:47:47.599Z,33.39
2023-01-01T23:50:16.134Z,33.37
2023-01-01T23:52:44.536Z,33.55
2023-01-01T23:55:13.117Z,33.85
2023-01-01T23:57:41.543Z,33.73
